Disclaimer

Please do not use the information listed here in-flight or in-navigation, as they are not provided to us by the airports but are provided by volunteers, so they might be outdated.

Search


Regions


Airport information page

No radio frequency information is available.

Airport informations:
Latitude: 41° 38' 23.43" N
Longitude: 123° 29' 00.33" E
Elevation: 198 feet - 60 meters
Operating hours: Remarks
Operating agency: Civil government, landing fees and diplomatic clearance may be required
Timezone: UTC+8
Fuel: N/A

Runway information:
06/24 - 10499 x 148 feet< - >3200 x 45 meters

Recent METARs:
ZYTX 180800Z 24002MPS CAVOK 05/M14 Q1019 NOSIG
ZYTX 180830Z 23001MPS CAVOK 04/M13 Q1019 NOSIG
ZYTX 180900Z 00000MPS CAVOK 02/M14 Q1019 NOSIG

Airport on the map: